sensor_id;sensor_type;location;lat;lon;timestamp;pressure;altitude;pressure_sealevel;temperature;humidity
28797;BME280;24974;54.444;18.560;2024-03-02T00:00:08;100828.72;;;12.73;59.93
28797;BME280;24974;54.444;18.560;2024-03-02T00:02:45;100830.09;;;13.10;59.13
28797;BME280;24974;54.444;18.560;2024-03-02T00:05:21;100843.72;;;12.50;60.63
28797;BME280;24974;54.444;18.560;2024-03-02T00:07:56;100835.94;;;13.18;58.28
28797;BME280;24974;54.444;18.560;2024-03-02T00:10:36;100832.84;;;13.02;59.02
28797;BME280;24974;54.444;18.560;2024-03-02T00:13:10;100832.94;;;12.71;59.61
28797;BME280;24974;54.444;18.560;2024-03-02T00:15:48;100835.44;;;13.07;58.28
28797;BME280;24974;54.444;18.560;2024-03-02T00:20:56;100826.41;;;12.67;60.09
28797;BME280;24974;54.444;18.560;2024-03-02T00:23:29;100830.31;;;12.66;59.39
28797;BME280;24974;54.444;18.560;2024-03-02T00:26:01;100836.91;;;13.13;58.79
28797;BME280;24974;54.444;18.560;2024-03-02T00:28:33;100828.69;;;12.65;60.04
28797;BME280;24974;54.444;18.560;2024-03-02T00:31:11;100830.56;;;13.04;58.94
28797;BME280;24974;54.444;18.560;2024-03-02T00:33:44;100838.97;;;12.42;60.31
28797;BME280;24974;54.444;18.560;2024-03-02T00:36:18;100833.34;;;12.47;59.97
28797;BME280;24974;54.444;18.560;2024-03-02T00:38:53;100839.22;;;13.37;57.98
28797;BME280;24974;54.444;18.560;2024-03-02T00:41:29;100830.44;;;12.12;60.85
28797;BME280;24974;54.444;18.560;2024-03-02T00:44:02;100838.97;;;12.42;60.69
28797;BME280;24974;54.444;18.560;2024-03-02T00:46:35;100830.19;;;12.71;60.13
28797;BME280;24974;54.444;18.560;2024-03-02T00:49:18;100821.16;;;12.08;61.37
28797;BME280;24974;54.444;18.560;2024-03-02T00:51:52;100818.50;;;12.25;61.47
28797;BME280;24974;54.444;18.560;2024-03-02T00:54:27;100822.22;;;11.09;64.15
28797;BME280;24974;54.444;18.560;2024-03-02T00:56:59;100822.34;;;11.71;62.89
28797;BME280;24974;54.444;18.560;2024-03-02T00:59:30;100812.03;;;11.99;61.97
28797;BME280;24974;54.444;18.560;2024-03-02T01:02:02;100813.22;;;12.38;60.78
28797;BME280;24974;54.444;18.560;2024-03-02T01:04:33;100804.97;;;12.07;61.59
28797;BME280;24974;54.444;18.560;2024-03-02T01:07:04;100810.03;;;12.53;60.77
28797;BME280;24974;54.444;18.560;2024-03-02T01:09:35;100816.59;;;11.36;63.10
28797;BME280;24974;54.444;18.560;2024-03-02T01:12:06;100812.78;;;12.13;60.85
28797;BME280;24974;54.444;18.560;2024-03-02T01:14:37;100816.94;;;11.57;62.57
28797;BME280;24974;54.444;18.560;2024-03-02T01:17:08;100812.31;;;11.66;62.21
28797;BME280;24974;54.444;18.560;2024-03-02T01:19:39;100812.38;;;11.97;61.80
28797;BME280;24974;54.444;18.560;2024-03-02T01:22:11;100811.19;;;11.90;62.01
28797;BME280;24974;54.444;18.560;2024-03-02T01:24:43;100821.56;;;11.48;63.25
28797;BME280;24974;54.444;18.560;2024-03-02T01:27:14;100817.28;;;12.09;61.91
28797;BME280;24974;54.444;18.560;2024-03-02T01:29:45;100813.53;;;12.05;62.06
28797;BME280;24974;54.444;18.560;2024-03-02T01:32:15;100819.84;;;12.37;60.90
28797;BME280;24974;54.444;18.560;2024-03-02T01:34:46;100817.88;;;12.85;59.47
28797;BME280;24974;54.444;18.560;2024-03-02T01:37:17;100815.09;;;12.68;60.31
28797;BME280;24974;54.444;18.560;2024-03-02T01:39:48;100808.13;;;12.79;60.38
28797;BME280;24974;54.444;18.560;2024-03-02T01:42:19;100799.00;;;12.53;60.76
28797;BME280;24974;54.444;18.560;2024-03-02T01:44:50;100797.59;;;12.81;59.25
28797;BME280;24974;54.444;18.560;2024-03-02T01:47:21;100793.91;;;12.38;60.60
28797;BME280;24974;54.444;18.560;2024-03-02T01:49:52;100798.22;;;11.23;64.14
28797;BME280;24974;54.444;18.560;2024-03-02T01:52:23;100800.09;;;12.03;61.58
28797;BME280;24974;54.444;18.560;2024-03-02T01:54:54;100801.03;;;11.99;62.30
28797;BME280;24974;54.444;18.560;2024-03-02T01:57:25;100808.31;;;11.72;63.29
28797;BME280;24974;54.444;18.560;2024-03-02T01:59:55;100800.22;;;11.98;61.84
28797;BME280;24974;54.444;18.560;2024-03-02T02:02:27;100797.66;;;11.80;62.55
28797;BME280;24974;54.444;18.560;2024-03-02T02:04:58;100797.66;;;11.80;63.22
28797;BME280;24974;54.444;18.560;2024-03-02T02:07:28;100813.66;;;12.88;60.35
28797;BME280;24974;54.444;18.560;2024-03-02T02:09:59;100810.44;;;12.38;60.77
28797;BME280;24974;54.444;18.560;2024-03-02T02:12:30;100802.03;;;11.58;62.93
28797;BME280;24974;54.444;18.560;2024-03-02T02:15:02;100796.78;;;11.70;63.40
28797;BME280;24974;54.444;18.560;2024-03-02T02:17:33;100802.53;;;12.45;61.11
28797;BME280;24974;54.444;18.560;2024-03-02T02:20:05;100806.00;;;12.19;61.28
28797;BME280;24974;54.444;18.560;2024-03-02T02:22:36;100807.34;;;11.55;63.18
28797;BME280;24974;54.444;18.560;2024-03-02T02:25:07;100804.69;;;11.63;63.12
28797;BME280;24974;54.444;18.560;2024-03-02T02:27:38;100800.25;;;11.31;64.01
28797;BME280;24974;54.444;18.560;2024-03-02T02:30:10;100803.38;;;12.14;61.14
28797;BME280;24974;54.444;18.560;2024-03-02T02:32:41;100794.69;;;12.29;60.82
28797;BME280;24974;54.444;18.560;2024-03-02T02:35:12;100798.28;;;11.99;62.14
28797;BME280;24974;54.444;18.560;2024-03-02T02:37:44;100794.28;;;11.60;62.71
28797;BME280;24974;54.444;18.560;2024-03-02T02:40:16;100796.41;;;11.41;63.44
28797;BME280;24974;54.444;18.560;2024-03-02T02:42:49;100792.47;;;10.97;65.15
28797;BME280;24974;54.444;18.560;2024-03-02T02:45:22;100796.03;;;11.34;63.57
28797;BME280;24974;54.444;18.560;2024-03-02T02:47:53;100788.50;;;11.70;62.25
28797;BME280;24974;54.444;18.560;2024-03-02T02:50:24;100789.34;;;12.33;60.95
28797;BME280;24974;54.444;18.560;2024-03-02T02:52:55;100781.13;;;12.50;60.34
28797;BME280;24974;54.444;18.560;2024-03-02T02:55:25;100782.56;;;11.77;62.31
28797;BME280;24974;54.444;18.560;2024-03-02T02:57:56;100769.13;;;11.75;62.60
28797;BME280;24974;54.444;18.560;2024-03-02T03:00:27;100780.97;;;12.07;62.15
28797;BME280;24974;54.444;18.560;2024-03-02T03:02:58;100773.03;;;12.54;60.68
28797;BME280;24974;54.444;18.560;2024-03-02T03:05:29;100772.34;;;12.40;60.36
28797;BME280;24974;54.444;18.560;2024-03-02T03:08:00;100777.16;;;11.63;62.87
28797;BME280;24974;54.444;18.560;2024-03-02T03:10:31;100773.81;;;12.37;60.69
28797;BME280;24974;54.444;18.560;2024-03-02T03:13:03;100774.16;;;12.04;61.92
28797;BME280;24974;54.444;18.560;2024-03-02T03:15:35;100776.53;;;11.89;61.58
28797;BME280;24974;54.444;18.560;2024-03-02T03:18:07;100783.16;;;11.88;61.59
28797;BME280;24974;54.444;18.560;2024-03-02T03:20:38;100784.84;;;12.46;60.60
28797;BME280;24974;54.444;18.560;2024-03-02T03:23:09;100785.41;;;12.82;59.86
28797;BME280;24974;54.444;18.560;2024-03-02T03:25:40;100784.94;;;12.89;59.48
28797;BME280;24974;54.444;18.560;2024-03-02T03:28:12;100779.56;;;12.18;60.74
28797;BME280;24974;54.444;18.560;2024-03-02T03:30:43;100781.63;;;12.04;60.74
28797;BME280;24974;54.444;18.560;2024-03-02T03:33:13;100789.31;;;12.90;59.36
28797;BME280;24974;54.444;18.560;2024-03-02T03:35:44;100783.16;;;12.76;59.25
28797;BME280;24974;54.444;18.560;2024-03-02T03:38:15;100778.44;;;12.19;60.92
28797;BME280;24974;54.444;18.560;2024-03-02T03:40:46;100775.53;;;12.90;59.01
28797;BME280;24974;54.444;18.560;2024-03-02T03:43:18;100764.31;;;12.69;59.78
28797;BME280;24974;54.444;18.560;2024-03-02T03:45:48;100763.00;;;12.67;59.33
28797;BME280;24974;54.444;18.560;2024-03-02T03:48:19;100756.31;;;12.02;61.28
28797;BME280;24974;54.444;18.560;2024-03-02T03:50:50;100763.88;;;11.88;61.65
28797;BME280;24974;54.444;18.560;2024-03-02T03:53:22;100762.63;;;11.71;62.71
28797;BME280;24974;54.444;18.560;2024-03-02T03:55:53;100767.44;;;12.19;61.03
28797;BME280;24974;54.444;18.560;2024-03-02T03:58:23;100767.94;;;12.30;61.35
28797;BME280;24974;54.444;18.560;2024-03-02T04:00:54;100769.28;;;12.50;60.30
28797;BME280;24974;54.444;18.560;2024-03-02T04:03:25;100776.28;;;12.56;59.64
28797;BME280;24974;54.444;18.560;2024-03-02T04:05:56;100775.19;;;12.83;59.97
28797;BME280;24974;54.444;18.560;2024-03-02T04:08:27;100777.94;;;12.83;59.46
28797;BME280;24974;54.444;18.560;2024-03-02T04:10:58;100788.28;;;12.51;60.10
28797;BME280;24974;54.444;18.560;2024-03-02T04:13:28;100787.59;;;12.37;60.09
28797;BME280;24974;54.444;18.560;2024-03-02T04:15:59;100793.31;;;12.18;61.35
28797;BME280;24974;54.444;18.560;2024-03-02T04:18:30;100802.38;;;12.50;59.96
28797;BME280;24974;54.444;18.560;2024-03-02T04:21:02;100798.00;;;11.56;62.34
28797;BME280;24974;54.444;18.560;2024-03-02T04:23:39;100789.41;;;12.11;61.85
28797;BME280;24974;54.444;18.560;2024-03-02T04:26:10;100800.53;;;11.52;62.92
28797;BME280;24974;54.444;18.560;2024-03-02T04:28:41;100791.13;;;12.29;61.35
28797;BME280;24974;54.444;18.560;2024-03-02T04:31:11;100796.94;;;11.88;62.38
28797;BME280;24974;54.444;18.560;2024-03-02T04:33:43;100791.06;;;12.12;61.82
28797;BME280;24974;54.444;18.560;2024-03-02T04:36:13;100795.78;;;11.89;61.75
28797;BME280;24974;54.444;18.560;2024-03-02T04:38:44;100802.22;;;12.46;60.25
28797;BME280;24974;54.444;18.560;2024-03-02T04:41:15;100794.03;;;11.26;64.13
28797;BME280;24974;54.444;18.560;2024-03-02T04:43:46;100799.16;;;12.17;61.18
28797;BME280;24974;54.444;18.560;2024-03-02T04:46:17;100800.41;;;11.35;63.63
28797;BME280;24974;54.444;18.560;2024-03-02T04:48:48;100800.47;;;11.43;63.69
28797;BME280;24974;54.444;18.560;2024-03-02T04:51:25;100808.78;;;11.52;62.75
28797;BME280;24974;54.444;18.560;2024-03-02T04:53:56;100799.66;;;11.65;62.64
28797;BME280;24974;54.444;18.560;2024-03-02T04:56:27;100791.13;;;11.31;63.66
28797;BME280;24974;54.444;18.560;2024-03-02T04:59:18;100797.56;;;11.04;64.13
28797;BME280;24974;54.444;18.560;2024-03-02T05:01:49;100795.72;;;11.58;63.30
28797;BME280;24974;54.444;18.560;2024-03-02T05:04:20;100798.44;;;11.49;63.39
28797;BME280;24974;54.444;18.560;2024-03-02T05:06:51;100789.41;;;11.80;62.25
28797;BME280;24974;54.444;18.560;2024-03-02T05:09:24;100795.03;;;11.30;63.79
28797;BME280;24974;54.444;18.560;2024-03-02T05:11:55;100787.84;;;11.20;63.69
28797;BME280;24974;54.444;18.560;2024-03-02T05:14:45;100785.03;;;12.10;60.76
28797;BME280;24974;54.444;18.560;2024-03-02T05:17:16;100779.91;;;11.18;63.92
28797;BME280;24974;54.444;18.560;2024-03-02T05:19:47;100778.34;;;11.48;63.16
28797;BME280;24974;54.444;18.560;2024-03-02T05:22:18;100779.25;;;11.21;63.70
28797;BME280;24974;54.444;18.560;2024-03-02T05:24:49;100784.16;;;11.25;63.76
28797;BME280;24974;54.444;18.560;2024-03-02T05:27:20;100785.72;;;11.17;63.87
28797;BME280;24974;54.444;18.560;2024-03-02T05:29:51;100789.47;;;11.43;63.34
28797;BME280;24974;54.444;18.560;2024-03-02T05:32:22;100790.50;;;11.78;61.99
28797;BME280;24974;54.444;18.560;2024-03-02T05:34:53;100788.34;;;11.44;63.01
28797;BME280;24974;54.444;18.560;2024-03-02T05:37:24;100793.47;;;11.37;63.16
28797;BME280;24974;54.444;18.560;2024-03-02T05:39:55;100795.16;;;11.69;62.88
28797;BME280;24974;54.444;18.560;2024-03-02T05:42:25;100804.53;;;11.68;62.55
28797;BME280;24974;54.444;18.560;2024-03-02T05:44:57;100798.44;;;11.49;62.91
28797;BME280;24974;54.444;18.560;2024-03-02T05:47:28;100808.59;;;11.71;62.61
28797;BME280;24974;54.444;18.560;2024-03-02T05:49:59;100808.84;;;11.16;64.10
28797;BME280;24974;54.444;18.560;2024-03-02T05:52:30;100811.69;;;11.47;63.22
28797;BME280;24974;54.444;18.560;2024-03-02T05:55:00;100811.16;;;11.45;63.32
28797;BME280;24974;54.444;18.560;2024-03-02T05:57:31;100818.44;;;11.63;62.66
28797;BME280;24974;54.444;18.560;2024-03-02T06:00:16;100818.88;;;11.34;64.07
28797;BME280;24974;54.444;18.560;2024-03-02T06:02:47;100825.81;;;10.82;65.05
28797;BME280;24974;54.444;18.560;2024-03-02T06:05:18;100828.31;;;11.06;65.00
28797;BME280;24974;54.444;18.560;2024-03-02T06:07:49;100827.09;;;10.98;64.89
28797;BME280;24974;54.444;18.560;2024-03-02T06:10:20;100829.66;;;11.31;63.32
28797;BME280;24974;54.444;18.560;2024-03-02T06:12:51;100831.06;;;11.42;63.51
28797;BME280;24974;54.444;18.560;2024-03-02T06:15:22;100833.72;;;10.97;64.65
28797;BME280;24974;54.444;18.560;2024-03-02T06:17:53;100837.09;;;11.30;64.30
28797;BME280;24974;54.444;18.560;2024-03-02T06:20:24;100843.91;;;11.10;64.67
28797;BME280;24974;54.444;18.560;2024-03-02T06:22:57;100846.47;;;11.29;63.92
28797;BME280;24974;54.444;18.560;2024-03-02T06:25:28;100847.41;;;10.61;66.19
28797;BME280;24974;54.444;18.560;2024-03-02T06:27:59;100848.94;;;11.53;63.67
28797;BME280;24974;54.444;18.560;2024-03-02T06:30:29;100850.28;;;11.56;63.29
28797;BME280;24974;54.444;18.560;2024-03-02T06:33:00;100844.06;;;11.28;63.27
28797;BME280;24974;54.444;18.560;2024-03-02T06:35:31;100837.75;;;11.49;63.83
28797;BME280;24974;54.444;18.560;2024-03-02T06:38:02;100838.63;;;11.36;63.24
28797;BME280;24974;54.444;18.560;2024-03-02T06:40:33;100838.69;;;11.67;62.84
28797;BME280;24974;54.444;18.560;2024-03-02T06:43:04;100840.84;;;11.48;63.35
28797;BME280;24974;54.444;18.560;2024-03-02T06:45:35;100842.91;;;11.29;63.15
28797;BME280;24974;54.444;18.560;2024-03-02T06:48:06;100843.66;;;11.57;63.20
28797;BME280;24974;54.444;18.560;2024-03-02T06:50:37;100836.69;;;11.59;62.91
28797;BME280;24974;54.444;18.560;2024-03-02T06:53:08;100840.56;;;11.00;64.72
28797;BME280;24974;54.444;18.560;2024-03-02T06:55:39;100838.81;;;11.04;64.28
28797;BME280;24974;54.444;18.560;2024-03-02T06:58:14;100840.97;;;11.65;62.96
28797;BME280;24974;54.444;18.560;2024-03-02T07:00:47;100836.47;;;11.47;62.84
28797;BME280;24974;54.444;18.560;2024-03-02T07:03:18;100843.06;;;11.46;63.69
28797;BME280;24974;54.444;18.560;2024-03-02T07:05:49;100835.34;;;12.64;60.12
28797;BME280;24974;54.444;18.560;2024-03-02T07:08:20;100836.66;;;11.73;61.58
28797;BME280;24974;54.444;18.560;2024-03-02T07:10:51;100837.25;;;12.15;61.28
28797;BME280;24974;54.444;18.560;2024-03-02T07:13:22;100840.03;;;11.47;62.70
28797;BME280;24974;54.444;18.560;2024-03-02T07:15:53;100848.00;;;11.35;63.39
28797;BME280;24974;54.444;18.560;2024-03-02T07:18:42;100850.09;;;12.19;61.47
28797;BME280;24974;54.444;18.560;2024-03-02T07:21:15;100844.94;;;12.35;60.47
28797;BME280;24974;54.444;18.560;2024-03-02T07:23:46;100857.22;;;13.08;58.39
28797;BME280;24974;54.444;18.560;2024-03-02T07:26:17;100849.72;;;11.67;62.35
28797;BME280;24974;54.444;18.560;2024-03-02T07:28:51;100857.66;;;11.69;62.04
28797;BME280;24974;54.444;18.560;2024-03-02T07:31:22;100858.06;;;10.90;65.31
28797;BME280;24974;54.444;18.560;2024-03-02T07:33:53;100845.72;;;11.15;64.10
28797;BME280;24974;54.444;18.560;2024-03-02T07:36:24;100850.53;;;11.68;62.77
28797;BME280;24974;54.444;18.560;2024-03-02T07:38:55;100849.25;;;12.19;60.73
28797;BME280;24974;54.444;18.560;2024-03-02T07:41:25;100859.22;;;12.28;60.74
28797;BME280;24974;54.444;18.560;2024-03-02T07:43:56;100860.72;;;10.81;64.44
28797;BME280;24974;54.444;18.560;2024-03-02T07:46:27;100847.59;;;10.92;64.66
28797;BME280;24974;54.444;18.560;2024-03-02T07:48:58;100853.06;;;12.31;60.06
28797;BME280;24974;54.444;18.560;2024-03-02T07:51:29;100862.59;;;12.03;61.33
28797;BME280;24974;54.444;18.560;2024-03-02T07:54:00;100858.88;;;10.90;64.63
28797;BME280;24974;54.444;18.560;2024-03-02T07:56:31;100852.66;;;11.12;63.81
28797;BME280;24974;54.444;18.560;2024-03-02T07:59:02;100863.53;;;11.31;63.74
28797;BME280;24974;54.444;18.560;2024-03-02T08:01:33;100871.34;;;10.60;65.55
28797;BME280;24974;54.444;18.560;2024-03-02T08:04:04;100863.53;;;11.17;64.14
28797;BME280;24974;54.444;18.560;2024-03-02T08:06:35;100856.00;;;11.23;63.59
28797;BME280;24974;54.444;18.560;2024-03-02T08:09:06;100874.00;;;11.29;63.52
28797;BME280;24974;54.444;18.560;2024-03-02T08:11:40;100865.97;;;11.19;63.45
28797;BME280;24974;54.444;18.560;2024-03-02T08:14:11;100880.75;;;12.66;59.46
28797;BME280;24974;54.444;18.560;2024-03-02T08:16:42;100883.91;;;11.89;61.24
28797;BME280;24974;54.444;18.560;2024-03-02T08:19:12;100894.84;;;10.94;63.96
28797;BME280;24974;54.444;18.560;2024-03-02T08:21:43;100892.31;;;11.84;62.87
28797;BME280;24974;54.444;18.560;2024-03-02T08:24:14;100885.97;;;11.83;61.18
28797;BME280;24974;54.444;18.560;2024-03-02T08:26:45;100877.22;;;12.03;60.40
28797;BME280;24974;54.444;18.560;2024-03-02T08:29:16;100879.19;;;11.31;62.88
28797;BME280;24974;54.444;18.560;2024-03-02T08:31:47;100876.31;;;11.72;61.74
28797;BME280;24974;54.444;18.560;2024-03-02T08:34:17;100873.88;;;11.48;62.44
28797;BME280;24974;54.444;18.560;2024-03-02T08:36:48;100893.97;;;11.35;62.58
28797;BME280;24974;54.444;18.560;2024-03-02T08:39:19;100890.06;;;10.86;63.82
28797;BME280;24974;54.444;18.560;2024-03-02T08:41:50;100867.34;;;11.44;62.24
28797;BME280;24974;54.444;18.560;2024-03-02T08:44:21;100885.94;;;11.61;62.25
28797;BME280;24974;54.444;18.560;2024-03-02T08:46:52;100879.56;;;11.02;63.51
28797;BME280;24974;54.444;18.560;2024-03-02T08:49:23;100871.97;;;11.35;62.35
28797;BME280;24974;54.444;18.560;2024-03-02T08:51:54;100883.19;;;11.25;62.92
28797;BME280;24974;54.444;18.560;2024-03-02T08:54:25;100879.72;;;11.19;62.83
28797;BME280;24974;54.444;18.560;2024-03-02T08:56:56;100876.41;;;11.44;61.98
28797;BME280;24974;54.444;18.560;2024-03-02T08:59:27;100887.75;;;11.65;61.66
28797;BME280;24974;54.444;18.560;2024-03-02T09:01:58;100882.22;;;10.65;64.46
28797;BME280;24974;54.444;18.560;2024-03-02T09:04:29;100884.84;;;11.12;63.15
28797;BME280;24974;54.444;18.560;2024-03-02T09:07:01;100884.59;;;11.36;62.92
28797;BME280;24974;54.444;18.560;2024-03-02T09:09:31;100882.91;;;11.85;60.91
28797;BME280;24974;54.444;18.560;2024-03-02T09:12:03;100888.03;;;12.53;59.68
28797;BME280;24974;54.444;18.560;2024-03-02T09:14:34;100898.81;;;11.88;60.81
28797;BME280;24974;54.444;18.560;2024-03-02T09:17:05;100891.66;;;11.87;60.92
28797;BME280;24974;54.444;18.560;2024-03-02T09:19:36;100888.78;;;11.92;61.22
28797;BME280;24974;54.444;18.560;2024-03-02T09:22:07;100890.25;;;11.53;61.93
28797;BME280;24974;54.444;18.560;2024-03-02T09:24:38;100898.06;;;12.27;60.78
28797;BME280;24974;54.444;18.560;2024-03-02T09:27:09;100890.09;;;11.72;61.68
28797;BME280;24974;54.444;18.560;2024-03-02T09:29:40;100887.34;;;11.22;62.00
28797;BME280;24974;54.444;18.560;2024-03-02T09:32:13;100888.09;;;11.86;61.81
28797;BME280;24974;54.444;18.560;2024-03-02T09:34:44;100892.31;;;11.84;61.04
28797;BME280;24974;54.444;18.560;2024-03-02T09:37:15;100897.94;;;12.01;60.38
28797;BME280;24974;54.444;18.560;2024-03-02T09:39:46;100907.44;;;11.23;62.61
28797;BME280;24974;54.444;18.560;2024-03-02T09:42:17;100906.34;;;11.10;63.61
28797;BME280;24974;54.444;18.560;2024-03-02T09:44:48;100910.91;;;11.64;62.10
28797;BME280;24974;54.444;18.560;2024-03-02T09:47:19;100922.34;;;11.58;62.13
28797;BME280;24974;54.444;18.560;2024-03-02T09:49:49;100933.84;;;11.24;63.00
28797;BME280;24974;54.444;18.560;2024-03-02T09:52:22;100922.78;;;11.87;61.39
28797;BME280;24974;54.444;18.560;2024-03-02T09:54:53;100928.47;;;11.91;61.53
28797;BME280;24974;54.444;18.560;2024-03-02T09:57:24;100924.34;;;11.30;63.40
28797;BME280;24974;54.444;18.560;2024-03-02T09:59:55;100918.38;;;12.62;59.42
28797;BME280;24974;54.444;18.560;2024-03-02T10:02:26;100928.09;;;11.84;61.95
28797;BME280;24974;54.444;18.560;2024-03-02T10:04:56;100928.97;;;11.93;61.71
28797;BME280;24974;54.444;18.560;2024-03-02T10:07:27;100934.63;;;11.74;62.39
28797;BME280;24974;54.444;18.560;2024-03-02T10:09:58;100927.78;;;12.30;60.23
28797;BME280;24974;54.444;18.560;2024-03-02T10:12:41;100925.72;;;11.91;62.14
28797;BME280;24974;54.444;18.560;2024-03-02T10:15:12;100932.78;;;12.59;59.29
28797;BME280;24974;54.444;18.560;2024-03-02T10:17:43;100929.25;;;12.67;59.62
28797;BME280;24974;54.444;18.560;2024-03-02T10:20:27;100928.97;;;12.38;60.60
28797;BME280;24974;54.444;18.560;2024-03-02T10:23:15;100916.44;;;11.87;61.48
28797;BME280;24974;54.444;18.560;2024-03-02T10:25:47;100915.50;;;12.36;60.62
28797;BME280;24974;54.444;18.560;2024-03-02T10:28:18;100919.66;;;12.56;59.79
28797;BME280;24974;54.444;18.560;2024-03-02T10:30:49;100926.84;;;12.74;59.68
28797;BME280;24974;54.444;18.560;2024-03-02T10:33:22;100919.88;;;12.68;59.62
28797;BME280;24974;54.444;18.560;2024-03-02T10:35:54;100916.34;;;14.11;55.95
28797;BME280;24974;54.444;18.560;2024-03-02T10:38:25;100917.47;;;14.36;55.02
28797;BME280;24974;54.444;18.560;2024-03-02T10:41:00;100925.44;;;14.29;55.55
28797;BME280;24974;54.444;18.560;2024-03-02T10:43:31;100923.16;;;14.87;54.15
28797;BME280;24974;54.444;18.560;2024-03-02T10:46:03;100919.78;;;15.10;53.57
28797;BME280;24974;54.444;18.560;2024-03-02T10:48:35;100920.72;;;13.26;57.42
28797;BME280;24974;54.444;18.560;2024-03-02T10:51:07;100924.63;;;14.11;55.86
28797;BME280;24974;54.444;18.560;2024-03-02T10:53:38;100918.50;;;13.80;56.22
28797;BME280;24974;54.444;18.560;2024-03-02T10:56:09;100918.00;;;13.78;56.59
28797;BME280;24974;54.444;18.560;2024-03-02T10:58:41;100914.53;;;12.72;59.13
28797;BME280;24974;54.444;18.560;2024-03-02T11:01:13;100908.09;;;13.85;56.41
28797;BME280;24974;54.444;18.560;2024-03-02T11:03:44;100914.94;;;13.96;56.66
28797;BME280;24974;54.444;18.560;2024-03-02T11:06:16;100909.22;;;13.93;56.37
28797;BME280;24974;54.444;18.560;2024-03-02T11:08:49;100906.91;;;14.85;52.94
28797;BME280;24974;54.444;18.560;2024-03-02T11:11:30;100904.34;;;13.98;56.43
28797;BME280;24974;54.444;18.560;2024-03-02T11:14:07;100901.66;;;14.83;53.96
28797;BME280;24974;54.444;18.560;2024-03-02T11:16:41;100903.25;;;13.65;56.98
28797;BME280;24974;54.444;18.560;2024-03-02T11:19:14;100899.31;;;13.83;56.83
28797;BME280;24974;54.444;18.560;2024-03-02T11:21:46;100899.16;;;13.54;57.32
28797;BME280;24974;54.444;18.560;2024-03-02T11:26:54;100891.50;;;14.03;55.97
28797;BME280;24974;54.444;18.560;2024-03-02T11:29:46;100898.53;;;15.23;53.62
28797;BME280;24974;54.444;18.560;2024-03-02T11:32:20;100887.75;;;14.71;54.37
28797;BME280;24974;54.444;18.560;2024-03-02T11:34:52;100894.75;;;14.05;56.16
28797;BME280;24974;54.444;18.560;2024-03-02T11:37:24;100897.22;;;13.80;56.46
28797;BME280;24974;54.444;18.560;2024-03-02T11:39:55;100902.00;;;14.26;55.90
28797;BME280;24974;54.444;18.560;2024-03-02T11:42:26;100895.91;;;14.97;54.31
28797;BME280;24974;54.444;18.560;2024-03-02T11:44:57;100895.88;;;15.56;53.11
28797;BME280;24974;54.444;18.560;2024-03-02T11:47:31;100891.56;;;14.88;54.88
28797;BME280;24974;54.444;18.560;2024-03-02T11:50:02;100888.66;;;15.14;53.88
28797;BME280;24974;54.444;18.560;2024-03-02T11:52:40;100897.63;;;15.61;53.10
28797;BME280;24974;54.444;18.560;2024-03-02T11:55:12;100892.78;;;14.22;56.44
28797;BME280;24974;54.444;18.560;2024-03-02T11:57:45;100892.38;;;14.50;55.73
28797;BME280;24974;54.444;18.560;2024-03-02T12:00:17;100889.31;;;14.81;55.22
28797;BME280;24974;54.444;18.560;2024-03-02T12:03:00;100885.13;;;14.11;56.91
28797;BME280;24974;54.444;18.560;2024-03-02T12:05:32;100898.16;;;14.02;57.10
28797;BME280;24974;54.444;18.560;2024-03-02T12:08:05;100901.03;;;14.31;56.28
28797;BME280;24974;54.444;18.560;2024-03-02T12:10:36;100900.53;;;14.46;56.17
28797;BME280;24974;54.444;18.560;2024-03-02T12:13:08;100893.34;;;14.92;55.00
28797;BME280;24974;54.444;18.560;2024-03-02T12:15:41;100884.53;;;13.79;57.89
28797;BME280;24974;54.444;18.560;2024-03-02T12:18:11;100893.19;;;14.42;56.42
28797;BME280;24974;54.444;18.560;2024-03-02T12:20:42;100905.66;;;13.75;58.28
28797;BME280;24974;54.444;18.560;2024-03-02T12:23:13;100898.22;;;14.57;56.32
28797;BME280;24974;54.444;18.560;2024-03-02T12:25:44;100902.53;;;14.03;57.03
28797;BME280;24974;54.444;18.560;2024-03-02T12:28:16;100909.22;;;14.02;57.67
28797;BME280;24974;54.444;18.560;2024-03-02T12:30:46;100908.47;;;15.45;54.34
28797;BME280;24974;54.444;18.560;2024-03-02T12:33:19;100896.25;;;15.25;54.34
28797;BME280;24974;54.444;18.560;2024-03-02T12:35:50;100910.94;;;14.49;56.45
28797;BME280;24974;54.444;18.560;2024-03-02T12:38:21;100903.91;;;14.43;57.11
28797;BME280;24974;54.444;18.560;2024-03-02T12:40:56;100906.78;;;14.73;56.18
28797;BME280;24974;54.444;18.560;2024-03-02T12:43:30;100913.84;;;14.53;56.13
28797;BME280;24974;54.444;18.560;2024-03-02T12:46:04;100911.63;;;14.20;56.75
28797;BME280;24974;54.444;18.560;2024-03-02T12:48:35;100900.28;;;14.05;58.16
28797;BME280;24974;54.444;18.560;2024-03-02T12:51:06;100900.16;;;13.66;58.91
28797;BME280;24974;54.444;18.560;2024-03-02T12:53:37;100897.97;;;14.24;57.69
28797;BME280;24974;54.444;18.560;2024-03-02T12:56:08;100899.88;;;14.49;56.48
28797;BME280;24974;54.444;18.560;2024-03-02T12:58:41;100910.38;;;13.66;58.92
28797;BME280;24974;54.444;18.560;2024-03-02T13:01:14;100898.06;;;14.92;56.17
28797;BME280;24974;54.444;18.560;2024-03-02T13:03:48;100896.56;;;15.24;55.04
28797;BME280;24974;54.444;18.560;2024-03-02T13:06:20;100893.25;;;14.80;56.03
28797;BME280;24974;54.444;18.560;2024-03-02T13:08:51;100893.13;;;15.27;55.09